createdAt,value
2022-10-18T00:01:09.327Z,8.07
2022-10-18T00:06:15.491Z,8.02
2022-10-18T00:08:43.666Z,7.99
2022-10-18T00:11:11.805Z,7.97
2022-10-18T00:13:39.878Z,7.95
2022-10-18T00:16:15.335Z,7.94
2022-10-18T00:18:44.447Z,7.94
2022-10-18T00:21:17.091Z,7.93
2022-10-18T00:23:46.201Z,8.00
2022-10-18T00:26:24.080Z,8.07
2022-10-18T00:28:56.377Z,8.11
2022-10-18T00:31:31.616Z,8.14
2022-10-18T00:34:11.185Z,8.17
2022-10-18T00:36:39.323Z,8.20
2022-10-18T00:39:09.436Z,8.23
2022-10-18T00:41:38.474Z,8.23
2022-10-18T00:44:12.672Z,8.24
2022-10-18T00:46:49.092Z,8.26
2022-10-18T00:49:55.752Z,8.29
2022-10-18T00:52:34.803Z,8.30
2022-10-18T00:55:04.640Z,8.28
2022-10-18T00:57:33.284Z,8.28
2022-10-18T01:00:02.144Z,8.27
2022-10-18T01:02:32.416Z,8.26
2022-10-18T01:05:00.693Z,8.27
2022-10-18T01:07:47.907Z,8.30
2022-10-18T01:10:37.264Z,8.31
2022-10-18T01:13:25.819Z,8.32
2022-10-18T01:16:27.691Z,8.35
2022-10-18T01:19:13.959Z,8.34
2022-10-18T01:21:53.997Z,8.35
2022-10-18T01:24:53.532Z,8.35
2022-10-18T01:27:38.740Z,8.31
2022-10-18T01:30:33.941Z,8.27
2022-10-18T01:33:21.920Z,8.24
2022-10-18T01:35:58.922Z,8.20
2022-10-18T01:38:30.425Z,8.21
2022-10-18T01:41:02.299Z,8.21
2022-10-18T01:43:32.544Z,8.20
2022-10-18T01:46:01.151Z,8.21
2022-10-18T01:48:30.964Z,8.19
2022-10-18T01:50:59.382Z,8.18
2022-10-18T01:53:34.952Z,8.15
2022-10-18T01:56:24.916Z,8.11
2022-10-18T01:59:08.753Z,8.10
2022-10-18T02:01:51.064Z,8.08
2022-10-18T02:04:54.523Z,8.06
2022-10-18T02:07:39.601Z,8.07
2022-10-18T02:10:28.087Z,8.08
2022-10-18T02:12:57.284Z,8.06
2022-10-18T02:15:33.061Z,8.04
2022-10-18T02:18:11.046Z,8.04
2022-10-18T02:20:39.425Z,8.02
2022-10-18T02:23:10.839Z,8.01
2022-10-18T02:25:39.525Z,8.00
2022-10-18T02:28:07.819Z,7.97
2022-10-18T02:30:51.622Z,7.95
2022-10-18T02:33:32.691Z,7.93
2022-10-18T02:36:10.008Z,7.91
2022-10-18T02:38:41.431Z,7.91
2022-10-18T02:41:09.437Z,7.90
2022-10-18T02:43:37.501Z,7.87
2022-10-18T02:46:05.835Z,7.85
2022-10-18T02:48:33.827Z,7.78
2022-10-18T02:51:01.962Z,7.71
2022-10-18T02:53:30.047Z,7.62
2022-10-18T02:55:58.074Z,7.54
2022-10-18T02:58:26.100Z,7.45
2022-10-18T03:00:54.159Z,7.38
2022-10-18T03:03:22.206Z,7.31
2022-10-18T03:05:51.381Z,7.26
2022-10-18T03:08:20.056Z,7.20
2022-10-18T03:10:48.104Z,7.12
2022-10-18T03:13:16.599Z,7.07
2022-10-18T03:15:44.641Z,7.02
2022-10-18T03:18:12.677Z,6.96
2022-10-18T03:20:40.848Z,6.90
2022-10-18T03:23:09.085Z,6.87
2022-10-18T03:25:37.149Z,6.84
2022-10-18T03:28:05.340Z,6.82
2022-10-18T03:30:33.338Z,6.81
2022-10-18T03:33:01.408Z,6.76
2022-10-18T03:35:29.429Z,6.72
2022-10-18T03:37:57.724Z,6.67
2022-10-18T03:40:25.906Z,6.64
2022-10-18T03:42:53.969Z,6.61
2022-10-18T03:45:21.995Z,6.57
2022-10-18T03:47:50.024Z,6.54
2022-10-18T03:50:18.492Z,6.50
2022-10-18T03:52:46.591Z,6.47
2022-10-18T03:55:14.663Z,6.45
2022-10-18T03:57:42.661Z,6.45
2022-10-18T04:00:11.709Z,6.44
2022-10-18T04:02:42.724Z,6.42
2022-10-18T04:05:10.854Z,6.39
2022-10-18T04:07:38.897Z,6.36
2022-10-18T04:10:07.894Z,6.34
2022-10-18T04:12:35.915Z,6.31
2022-10-18T04:15:04.339Z,6.27
2022-10-18T04:17:32.620Z,6.23
2022-10-18T04:20:00.860Z,6.20
2022-10-18T04:22:28.919Z,6.16
2022-10-18T04:24:57.296Z,6.13
2022-10-18T04:27:25.710Z,6.10
2022-10-18T04:29:53.816Z,6.08
2022-10-18T04:32:21.843Z,6.07
2022-10-18T04:34:49.880Z,6.06
2022-10-18T04:37:17.927Z,6.03
2022-10-18T04:39:51.215Z,6.01
2022-10-18T04:42:22.699Z,5.99
2022-10-18T04:44:51.021Z,5.98
2022-10-18T04:47:19.104Z,5.97
2022-10-18T04:49:47.131Z,5.96
2022-10-18T04:52:15.222Z,5.97
2022-10-18T04:54:43.443Z,5.97
2022-10-18T04:57:11.487Z,5.99
2022-10-18T04:59:39.549Z,6.00
2022-10-18T05:02:07.821Z,6.00
2022-10-18T05:04:35.932Z,6.02
2022-10-18T05:07:05.946Z,6.02
2022-10-18T05:09:34.022Z,6.02
2022-10-18T05:12:02.197Z,6.03
2022-10-18T05:14:30.363Z,6.04
2022-10-18T05:16:58.383Z,6.05
2022-10-18T05:19:26.480Z,6.06
2022-10-18T05:21:54.529Z,6.06
2022-10-18T05:24:25.482Z,6.07
2022-10-18T05:26:55.749Z,6.09
2022-10-18T05:29:24.680Z,6.13
2022-10-18T05:31:52.752Z,6.19
2022-10-18T05:34:20.951Z,6.22
2022-10-18T05:36:51.931Z,6.26
2022-10-18T05:39:20.072Z,6.30
2022-10-18T05:41:48.106Z,6.34
2022-10-18T05:44:16.170Z,6.37
2022-10-18T05:46:44.268Z,6.40
2022-10-18T05:49:13.249Z,6.41
2022-10-18T05:51:41.413Z,6.42
2022-10-18T05:54:12.167Z,6.41
2022-10-18T05:56:40.961Z,6.42
2022-10-18T05:59:12.310Z,6.44
2022-10-18T06:01:42.415Z,6.48
2022-10-18T06:04:10.734Z,6.51
2022-10-18T06:06:39.695Z,6.55
2022-10-18T06:09:08.642Z,6.62
2022-10-18T06:11:37.391Z,6.67
2022-10-18T06:14:05.632Z,6.73
2022-10-18T06:16:33.976Z,6.79
2022-10-18T06:19:02.132Z,6.90
2022-10-18T06:21:30.238Z,7.06
2022-10-18T06:23:59.552Z,7.20
2022-10-18T06:26:27.958Z,7.34
2022-10-18T06:28:56.131Z,7.48
2022-10-18T06:31:24.193Z,7.59
2022-10-18T06:33:52.269Z,7.72
2022-10-18T06:36:24.102Z,7.83
2022-10-18T06:38:52.424Z,7.95
2022-10-18T06:41:20.725Z,8.06
2022-10-18T06:43:50.571Z,8.16
2022-10-18T06:46:19.137Z,8.27
2022-10-18T06:48:47.243Z,8.38
2022-10-18T06:51:15.569Z,8.50
2022-10-18T06:53:44.504Z,8.59
2022-10-18T06:56:21.453Z,8.69
2022-10-18T06:58:49.564Z,8.80
2022-10-18T07:01:19.131Z,8.90
2022-10-18T07:03:49.172Z,9.00
2022-10-18T07:06:21.279Z,9.09
2022-10-18T07:08:52.803Z,9.20
2022-10-18T07:11:25.321Z,9.29
2022-10-18T07:13:55.261Z,9.42
2022-10-18T07:16:23.365Z,9.53
2022-10-18T07:18:51.592Z,9.62
2022-10-18T07:21:22.570Z,9.70
2022-10-18T07:23:51.930Z,9.78
2022-10-18T07:26:32.117Z,9.86
2022-10-18T07:29:11.617Z,9.94
2022-10-18T07:31:40.934Z,10.01
2022-10-18T07:34:12.766Z,10.09
2022-10-18T07:36:41.637Z,10.18
2022-10-18T07:39:09.687Z,10.25
2022-10-18T07:41:38.143Z,10.30
2022-10-18T07:44:06.741Z,10.36
2022-10-18T07:46:34.880Z,10.40
2022-10-18T07:49:03.287Z,10.46
2022-10-18T07:51:32.828Z,10.51
2022-10-18T07:54:00.888Z,10.53
2022-10-18T07:56:29.033Z,10.57
2022-10-18T07:58:57.233Z,10.63
2022-10-18T08:01:25.989Z,10.71
2022-10-18T08:03:54.379Z,10.76
2022-10-18T08:06:23.276Z,10.81
2022-10-18T08:08:52.349Z,10.88
2022-10-18T08:11:23.938Z,10.92
2022-10-18T08:13:53.922Z,10.96
2022-10-18T08:16:28.160Z,11.00
2022-10-18T08:18:58.386Z,11.03
2022-10-18T08:21:27.027Z,11.03
2022-10-18T08:23:55.293Z,11.03
2022-10-18T08:26:23.948Z,11.02
2022-10-18T08:29:10.279Z,11.01
2022-10-18T08:31:40.224Z,11.01
2022-10-18T08:34:08.244Z,11.00
2022-10-18T08:36:37.500Z,11.01
2022-10-18T08:39:05.556Z,11.02
2022-10-18T08:41:58.644Z,11.00
2022-10-18T08:44:33.837Z,10.99
2022-10-18T08:47:10.553Z,11.01
2022-10-18T08:49:56.021Z,11.04
2022-10-18T08:52:57.760Z,11.07
2022-10-18T08:55:39.687Z,11.08
2022-10-18T08:58:34.043Z,11.12
2022-10-18T09:01:26.196Z,11.13
2022-10-18T09:04:29.441Z,11.16
2022-10-18T09:07:32.507Z,11.19
2022-10-18T09:10:33.934Z,11.20
2022-10-18T09:13:42.535Z,11.22
2022-10-18T09:16:22.049Z,11.26
2022-10-18T09:19:32.768Z,11.32
2022-10-18T09:22:13.235Z,11.39
2022-10-18T09:24:56.528Z,11.44
2022-10-18T09:27:50.998Z,11.47
2022-10-18T09:30:45.589Z,11.53
2022-10-18T09:33:19.582Z,11.60
2022-10-18T09:36:07.953Z,11.63
2022-10-18T09:39:03.993Z,11.69
2022-10-18T09:41:46.126Z,11.77
2022-10-18T09:44:35.993Z,11.81
2022-10-18T09:47:17.108Z,11.87
2022-10-18T09:49:57.387Z,11.89
2022-10-18T09:52:42.985Z,11.95
2022-10-18T09:55:21.341Z,12.03
2022-10-18T09:57:56.627Z,12.14
2022-10-18T10:00:33.759Z,12.23
2022-10-18T10:03:07.203Z,12.27
2022-10-18T10:05:35.251Z,12.34
2022-10-18T10:08:04.336Z,12.41
2022-10-18T10:10:33.484Z,12.57
2022-10-18T10:13:24.666Z,12.74
2022-10-18T10:16:00.781Z,12.89
2022-10-18T10:18:36.494Z,13.07
2022-10-18T10:21:14.813Z,13.23
2022-10-18T10:23:53.278Z,13.40
2022-10-18T10:26:31.122Z,13.49
2022-10-18T10:28:59.917Z,13.59
2022-10-18T10:31:30.914Z,13.68
2022-10-18T10:34:02.142Z,13.77
2022-10-18T10:36:31.990Z,13.85
2022-10-18T10:39:06.413Z,13.94
2022-10-18T10:41:34.935Z,14.03
2022-10-18T10:44:13.902Z,14.11
2022-10-18T10:46:42.571Z,14.25
2022-10-18T10:49:46.476Z,14.35
2022-10-18T10:52:27.216Z,14.45
2022-10-18T10:55:11.333Z,14.53
2022-10-18T10:57:48.433Z,14.65
2022-10-18T11:00:44.329Z,14.76
2022-10-18T11:03:29.106Z,14.90
2022-10-18T11:06:00.879Z,14.98
2022-10-18T11:08:41.539Z,15.07
2022-10-18T11:11:26.784Z,15.14
2022-10-18T11:14:26.671Z,15.24
2022-10-18T11:17:27.843Z,15.31
2022-10-18T11:20:09.748Z,15.40
2022-10-18T11:23:05.789Z,15.50
2022-10-18T11:26:04.485Z,15.58
2022-10-18T11:29:28.784Z,15.62
2022-10-18T11:32:19.514Z,15.65
2022-10-18T11:35:26.983Z,15.66
2022-10-18T11:38:32.289Z,15.65
2022-10-18T11:41:28.452Z,15.64
2022-10-18T11:44:03.664Z,15.63
2022-10-18T11:46:59.299Z,15.58
2022-10-18T11:50:05.740Z,15.55
2022-10-18T11:52:44.906Z,15.57
2022-10-18T11:55:46.461Z,15.58
2022-10-18T11:58:38.823Z,15.62
2022-10-18T12:01:29.564Z,15.66
2022-10-18T12:04:18.200Z,15.69
2022-10-18T12:06:50.760Z,15.72
2022-10-18T12:09:45.841Z,15.74
2022-10-18T12:12:33.507Z,15.76
2022-10-18T12:15:14.396Z,15.78
2022-10-18T12:17:50.139Z,15.80
2022-10-18T12:20:30.061Z,15.81
2022-10-18T12:23:16.256Z,15.84
2022-10-18T12:25:52.759Z,15.84
2022-10-18T12:28:51.859Z,15.83
2022-10-18T12:31:46.072Z,15.82
2022-10-18T12:34:26.513Z,15.80
2022-10-18T12:37:36.700Z,15.76
2022-10-18T12:40:32.315Z,15.74
2022-10-18T12:43:07.236Z,15.75
2022-10-18T12:45:46.492Z,15.77
2022-10-18T12:48:33.284Z,15.76
2022-10-18T12:51:20.274Z,15.80
2022-10-18T12:54:08.215Z,15.82
2022-10-18T12:56:42.194Z,15.85
2022-10-18T12:59:16.369Z,15.86
2022-10-18T13:01:50.641Z,15.87
2022-10-18T13:04:27.889Z,15.92
2022-10-18T13:06:59.625Z,15.95
2022-10-18T13:09:35.465Z,15.92
2022-10-18T13:12:09.633Z,15.92
2022-10-18T13:14:53.446Z,15.94
2022-10-18T13:17:49.920Z,15.93
2022-10-18T13:20:40.859Z,15.91
2022-10-18T13:23:39.265Z,15.90
2022-10-18T13:26:25.891Z,15.93
2022-10-18T13:29:09.567Z,15.97
2022-10-18T13:32:01.416Z,16.03
2022-10-18T13:34:38.529Z,16.07
2022-10-18T13:37:09.592Z,16.09
2022-10-18T13:39:40.060Z,16.08
2022-10-18T13:42:14.255Z,16.07
2022-10-18T13:44:44.734Z,16.07
2022-10-18T13:47:16.342Z,16.09
2022-10-18T13:50:35.544Z,16.10
2022-10-18T13:53:32.938Z,16.10
2022-10-18T13:56:34.466Z,16.09
2022-10-18T13:59:18.568Z,16.06
2022-10-18T14:02:00.521Z,16.05
2022-10-18T14:04:43.702Z,16.08
2022-10-18T14:07:11.882Z,16.09
2022-10-18T14:09:56.171Z,16.07
2022-10-18T14:12:41.112Z,16.04
2022-10-18T14:15:24.720Z,16.02
2022-10-18T14:18:06.456Z,16.01
2022-10-18T14:21:01.251Z,16.01
2022-10-18T14:23:46.775Z,15.99
2022-10-18T14:26:19.550Z,15.96
2022-10-18T14:29:06.918Z,15.93
2022-10-18T14:31:35.267Z,15.91
2022-10-18T14:34:03.771Z,15.88
2022-10-18T14:36:42.324Z,15.84
2022-10-18T14:39:29.864Z,15.79
2022-10-18T14:41:58.505Z,15.74
2022-10-18T14:44:30.689Z,15.71
2022-10-18T14:47:01.480Z,15.66
2022-10-18T14:49:30.417Z,15.61
2022-10-18T14:52:00.408Z,15.57
2022-10-18T14:54:33.770Z,15.53
2022-10-18T14:57:03.281Z,15.50
2022-10-18T14:59:41.707Z,15.47
2022-10-18T15:02:21.407Z,15.45
2022-10-18T15:05:19.517Z,15.46
2022-10-18T15:07:50.323Z,15.42
2022-10-18T15:10:25.544Z,15.39
2022-10-18T15:13:09.278Z,15.36
2022-10-18T15:15:39.198Z,15.31
2022-10-18T15:18:08.325Z,15.27
2022-10-18T15:20:42.445Z,15.23
2022-10-18T15:23:31.238Z,15.19
2022-10-18T15:26:09.998Z,15.14
2022-10-18T15:28:52.375Z,15.10
2022-10-18T15:31:28.302Z,15.07
2022-10-18T15:34:21.340Z,15.02
2022-10-18T15:36:50.826Z,14.97
2022-10-18T15:39:25.703Z,14.94
2022-10-18T15:41:59.655Z,14.92
2022-10-18T15:44:34.812Z,14.89
2022-10-18T15:47:11.977Z,14.87
2022-10-18T15:49:46.265Z,14.84
2022-10-18T15:52:38.603Z,14.83
2022-10-18T15:55:52.395Z,14.78
2022-10-18T15:58:27.847Z,14.73
2022-10-18T16:01:00.491Z,14.70
2022-10-18T16:03:28.755Z,14.66
2022-10-18T16:06:03.226Z,14.61
2022-10-18T16:08:32.287Z,14.55
2022-10-18T16:11:00.657Z,14.52
2022-10-18T16:13:28.962Z,14.47
2022-10-18T16:15:57.074Z,14.42
2022-10-18T16:18:26.233Z,14.36
2022-10-18T16:20:54.331Z,14.30
2022-10-18T16:23:26.371Z,14.22
2022-10-18T16:25:55.188Z,14.16
2022-10-18T16:28:25.762Z,14.09
2022-10-18T16:30:58.981Z,14.02
2022-10-18T16:33:27.207Z,13.96
2022-10-18T16:35:55.335Z,13.91
2022-10-18T16:38:34.013Z,13.92
2022-10-18T16:41:05.992Z,13.97
2022-10-18T16:43:35.117Z,13.98
2022-10-18T16:46:04.617Z,13.99
2022-10-18T16:48:33.279Z,14.00
2022-10-18T16:51:01.996Z,14.00
2022-10-18T16:53:30.098Z,14.00
2022-10-18T16:56:01.177Z,14.01
2022-10-18T16:58:31.184Z,14.01
2022-10-18T17:01:01.915Z,14.00
2022-10-18T17:03:32.031Z,14.01
2022-10-18T17:06:00.102Z,13.99
2022-10-18T17:08:29.139Z,14.00
2022-10-18T17:10:59.275Z,13.99
2022-10-18T17:13:27.373Z,13.98
2022-10-18T17:15:56.144Z,13.97
2022-10-18T17:18:30.505Z,13.97
2022-10-18T17:21:02.990Z,13.96
2022-10-18T17:23:31.158Z,13.96
2022-10-18T17:26:07.231Z,13.95
2022-10-18T17:28:43.282Z,13.92
2022-10-18T17:31:14.764Z,13.92
2022-10-18T17:33:42.822Z,13.90
2022-10-18T17:36:11.693Z,13.88
2022-10-18T17:38:39.791Z,13.86
2022-10-18T17:41:11.763Z,13.83
2022-10-18T17:46:14.384Z,13.81
2022-10-18T17:48:42.589Z,13.78
2022-10-18T17:51:14.802Z,13.76
2022-10-18T17:53:43.092Z,13.75
2022-10-18T17:56:11.990Z,13.73
2022-10-18T17:58:40.187Z,13.70
2022-10-18T18:01:18.328Z,13.67
2022-10-18T18:03:50.141Z,13.64
2022-10-18T18:06:20.299Z,13.61
2022-10-18T18:08:49.651Z,13.58
2022-10-18T18:11:18.311Z,13.55
2022-10-18T18:13:46.339Z,13.52
2022-10-18T18:16:20.859Z,13.49
2022-10-18T18:18:52.013Z,13.48
2022-10-18T18:21:20.930Z,13.49
2022-10-18T18:23:50.280Z,13.50
2022-10-18T18:26:19.341Z,13.50
2022-10-18T18:28:47.882Z,13.47
2022-10-18T18:31:23.534Z,13.46
2022-10-18T18:33:56.784Z,13.48
2022-10-18T18:36:29.056Z,13.45
2022-10-18T18:38:57.938Z,13.43
2022-10-18T18:41:27.898Z,13.42
2022-10-18T18:44:00.606Z,13.38
2022-10-18T18:46:33.247Z,13.28
2022-10-18T18:49:01.352Z,13.18
2022-10-18T18:51:29.469Z,13.09
2022-10-18T18:53:57.563Z,13.00
2022-10-18T18:56:28.930Z,12.91
2022-10-18T18:58:59.210Z,12.82
2022-10-18T19:01:30.939Z,12.71
2022-10-18T19:04:00.054Z,12.62
2022-10-18T19:06:38.441Z,12.54
2022-10-18T19:09:13.238Z,12.47
2022-10-18T19:11:41.266Z,12.40
2022-10-18T19:14:09.433Z,12.33
2022-10-18T19:17:01.680Z,12.26
2022-10-18T19:19:31.017Z,12.18
2022-10-18T19:22:04.447Z,12.12
2022-10-18T19:24:32.671Z,12.06
2022-10-18T19:27:12.363Z,11.99
2022-10-18T19:29:41.023Z,11.94
2022-10-18T19:32:15.891Z,11.90
2022-10-18T19:34:44.123Z,11.85
2022-10-18T19:37:13.681Z,11.80
2022-10-18T19:39:42.076Z,11.76
2022-10-18T19:42:15.715Z,11.72
2022-10-18T19:44:46.854Z,11.68
2022-10-18T19:47:16.221Z,11.64
2022-10-18T19:49:44.316Z,11.60
2022-10-18T19:52:12.488Z,11.55
2022-10-18T19:54:40.664Z,11.50
2022-10-18T19:57:08.904Z,11.44
2022-10-18T19:59:37.027Z,11.40
2022-10-18T20:02:05.321Z,11.36
2022-10-18T20:04:35.059Z,11.33
2022-10-18T20:07:03.155Z,11.32
2022-10-18T20:09:31.288Z,11.32
2022-10-18T20:11:59.290Z,11.31
2022-10-18T20:14:27.311Z,11.30
2022-10-18T20:16:55.388Z,11.30
2022-10-18T20:19:23.500Z,11.32
2022-10-18T20:21:51.568Z,11.32
2022-10-18T20:24:19.599Z,11.32
2022-10-18T20:26:47.666Z,11.31
2022-10-18T20:29:15.737Z,11.30
2022-10-18T20:31:43.863Z,11.29
2022-10-18T20:34:12.185Z,11.30
2022-10-18T20:36:40.856Z,11.31
2022-10-18T20:39:09.797Z,11.31
2022-10-18T20:41:43.244Z,11.30
2022-10-18T20:44:16.022Z,11.29
2022-10-18T20:46:44.363Z,11.28
2022-10-18T20:49:15.609Z,11.25
2022-10-18T20:51:43.807Z,11.20
2022-10-18T20:54:12.770Z,11.17
2022-10-18T20:56:40.939Z,11.14
2022-10-18T20:59:10.211Z,11.12
2022-10-18T21:01:39.346Z,11.10
2022-10-18T21:04:10.308Z,11.09
2022-10-18T21:06:42.526Z,11.06
2022-10-18T21:09:17.358Z,11.02
2022-10-18T21:11:49.770Z,10.98
2022-10-18T21:14:20.737Z,10.93
2022-10-18T21:16:50.172Z,10.90
2022-10-18T21:19:22.795Z,10.91
2022-10-18T21:21:54.733Z,10.99
2022-10-18T21:24:24.574Z,11.07
2022-10-18T21:26:52.803Z,11.15
2022-10-18T21:29:22.657Z,11.19
2022-10-18T21:31:59.331Z,11.22
2022-10-18T21:34:27.480Z,11.26
2022-10-18T21:36:55.485Z,11.31
2022-10-18T21:41:57.469Z,11.38
2022-10-18T21:44:25.932Z,11.42
2022-10-18T21:46:55.076Z,11.46
2022-10-18T21:49:25.075Z,11.46
2022-10-18T21:51:53.224Z,11.47
2022-10-18T21:54:21.387Z,11.49
2022-10-18T21:56:49.407Z,11.51
2022-10-18T21:59:17.426Z,11.49
2022-10-18T22:01:45.889Z,11.43
2022-10-18T22:04:23.149Z,11.39
2022-10-18T22:06:52.080Z,11.35
2022-10-18T22:09:21.503Z,11.31
2022-10-18T22:11:52.932Z,11.28
2022-10-18T22:14:21.802Z,11.28
2022-10-18T22:16:50.116Z,11.24
2022-10-18T22:19:18.206Z,11.22
2022-10-18T22:21:46.627Z,11.20
2022-10-18T22:24:14.927Z,11.17
2022-10-18T22:26:44.577Z,11.15
2022-10-18T22:29:21.233Z,11.11
2022-10-18T22:31:53.559Z,11.06
2022-10-18T22:34:29.465Z,11.04
2022-10-18T22:36:57.536Z,11.04
2022-10-18T22:39:25.641Z,10.98
2022-10-18T22:41:56.359Z,10.92
2022-10-18T22:44:26.624Z,10.90
2022-10-18T22:46:54.625Z,10.87
2022-10-18T22:49:22.666Z,10.82
2022-10-18T22:51:50.742Z,10.79
2022-10-18T22:54:18.847Z,10.79
2022-10-18T22:56:46.909Z,10.79
2022-10-18T22:59:15.013Z,10.80
2022-10-18T23:01:43.033Z,10.81
2022-10-18T23:04:11.204Z,10.83
2022-10-18T23:06:39.848Z,10.82
2022-10-18T23:09:10.709Z,10.78
2022-10-18T23:11:38.786Z,10.75
2022-10-18T23:14:07.115Z,10.71
2022-10-18T23:16:35.664Z,10.69
2022-10-18T23:19:04.419Z,10.63
2022-10-18T23:21:34.316Z,10.59
2022-10-18T23:24:02.359Z,10.58
2022-10-18T23:26:30.401Z,10.55
2022-10-18T23:28:58.622Z,10.54
2022-10-18T23:31:33.004Z,10.50
2022-10-18T23:34:05.046Z,10.47
2022-10-18T23:36:34.114Z,10.45
2022-10-18T23:39:04.070Z,10.43
2022-10-18T23:41:32.536Z,10.42
2022-10-18T23:44:00.624Z,10.42
2022-10-18T23:46:28.759Z,10.44
2022-10-18T23:48:56.821Z,10.41
2022-10-18T23:51:24.884Z,10.42
2022-10-18T23:53:53.152Z,10.39
2022-10-18T23:56:21.176Z,10.39
2022-10-18T23:58:49.191Z,10.36
